Time;durP1;ratioP1;P1;durP2;ratioP2;P2;SDS_P1;SDS_P2;PMS_P1;PMS_P2;Temp;Humidity;BMP_temperature;BMP_pressure;BME280_temperature;BME280_humidity;BME280_pressure;Samples;Min_cycle;Max_cycle;Signal;HPM_P1;HPM_P2
2022/01/08 00:00:07;;;;;;;48.80;16.05;;;;;;;-6.56;100.00;102126.20;1658134;86;22001;-88
2022/01/08 00:02:33;;;;;;;48.00;15.48;;;;;;;-6.58;100.00;102118.95;1657818;86;21195;-89
2022/01/08 00:05:00;;;;;;;47.83;15.08;;;;;;;-6.60;100.00;102112.96;1658138;86;21050;-88
2022/01/08 00:07:27;;;;;;;50.20;15.90;;;;;;;-6.60;100.00;102121.31;1658121;86;21518;-89
2022/01/08 00:09:53;;;;;;;40.95;15.45;;;;;;;-6.58;100.00;102121.56;1658094;85;21569;-88
2022/01/08 00:12:19;;;;;;;44.40;14.98;;;;;;;-6.57;100.00;102123.70;1658031;86;21099;-89
2022/01/08 00:14:45;;;;;;;48.70;14.03;;;;;;;-6.58;100.00;102113.70;1658092;85;20943;-88
2022/01/08 00:17:12;;;;;;;44.08;15.50;;;;;;;-6.59;100.00;102112.48;1657816;86;21007;-89
2022/01/08 00:19:38;;;;;;;44.55;16.10;;;;;;;-6.55;100.00;102115.27;1657972;86;21038;-89
2022/01/08 00:22:04;;;;;;;56.15;17.02;;;;;;;-6.58;100.00;102121.56;1658153;86;21077;-89
2022/01/08 00:24:30;;;;;;;51.40;15.80;;;;;;;-6.61;100.00;102125.72;1658124;86;21127;-89
2022/01/08 00:26:56;;;;;;;52.45;16.48;;;;;;;-6.61;100.00;102123.09;1640871;86;26891;-89
2022/01/08 00:29:22;;;;;;;52.90;15.88;;;;;;;-6.63;100.00;102127.12;1637155;87;26640;-88
2022/01/08 00:31:48;;;;;;;54.38;19.10;;;;;;;-6.69;100.00;102127.56;1637120;87;29115;-89
2022/01/08 00:34:14;;;;;;;53.85;17.87;;;;;;;-6.73;100.00;102123.50;1637111;86;20947;-89
2022/01/08 00:36:40;;;;;;;54.55;17.98;;;;;;;-6.77;100.00;102122.50;1637223;87;21159;-89
2022/01/08 00:39:07;;;;;;;57.73;17.85;;;;;;;-6.77;100.00;102122.50;1615267;87;21022;-89
2022/01/08 00:41:33;;;;;;;53.90;18.05;;;;;;;-6.78;100.00;102125.60;1636977;87;21124;-89
2022/01/08 00:43:59;;;;;;;54.95;18.25;;;;;;;-6.81;100.00;102119.75;1637216;87;21566;-90
2022/01/08 00:46:25;;;;;;;53.70;18.57;;;;;;;-6.84;100.00;102119.97;1637127;87;20934;-89
2022/01/08 00:48:51;;;;;;;59.63;19.25;;;;;;;-6.89;100.00;102109.31;1636949;87;21866;-89
2022/01/08 00:51:17;;;;;;;52.23;18.70;;;;;;;-6.88;100.00;102116.25;1628438;88;27284;-89
2022/01/08 00:53:43;;;;;;;54.08;17.82;;;;;;;-6.88;100.00;102122.80;1640838;86;21054;-90
2022/01/08 00:56:09;;;;;;;65.72;21.23;;;;;;;-6.91;100.00;102119.09;1660503;86;20978;-89
2022/01/08 00:58:35;;;;;;;60.43;18.70;;;;;;;-6.94;100.00;102120.62;1660747;86;21386;-89
2022/01/08 01:01:01;;;;;;;56.18;18.80;;;;;;;-6.99;100.00;102117.47;1660807;86;21071;-90
2022/01/08 01:03:27;;;;;;;54.90;18.17;;;;;;;-7.01;100.00;102117.21;1660428;86;21047;-90
2022/01/08 01:05:52;;;;;;;77.10;24.12;;;;;;;-7.02;100.00;102120.79;1660740;86;26886;-90
2022/01/08 01:08:18;;;;;;;72.17;22.30;;;;;;;-7.03;100.00;102118.61;1660909;86;20883;-89
2022/01/08 01:10:44;;;;;;;71.67;24.05;;;;;;;-7.05;100.00;102120.53;1660716;86;20979;-90
2022/01/08 01:13:10;;;;;;;64.80;20.40;;;;;;;-7.11;100.00;102115.24;1660606;85;21216;-90
2022/01/08 01:15:38;;;;;;;67.22;23.40;;;;;;;-7.11;100.00;102120.48;1660785;85;27070;-90
2022/01/08 01:18:04;;;;;;;58.13;20.65;;;;;;;-7.11;100.00;102115.72;1587754;88;21151;-90
2022/01/08 01:20:30;;;;;;;58.75;19.90;;;;;;;-7.09;100.00;102117.30;1567408;90;21185;-90
2022/01/08 01:25:32;;;;;;;62.67;19.42;;;;;;;-7.06;100.00;102114.91;1587799;88;21102;-90
2022/01/08 01:28:08;;;;;;;57.65;20.17;;;;;;;-7.11;100.00;102111.31;1584412;89;21473;-91
2022/01/08 01:48:54;;;;;;;60.98;20.15;;;;;;;-7.23;100.00;102129.67;1468685;96;21192;-90
2022/01/08 01:51:22;;;;;;;54.90;20.32;;;;;;;-7.25;100.00;102123.69;1449485;96;21203;-89
2022/01/08 01:53:49;;;;;;;55.55;19.77;;;;;;;-7.23;100.00;102117.89;1448225;99;21583;-90
2022/01/08 01:56:18;;;;;;;53.50;19.00;;;;;;;-7.22;100.00;102119.55;1448041;99;21582;-92
2022/01/08 01:58:45;;;;;;;55.75;20.85;;;;;;;-7.22;100.00;102118.23;1465916;97;21005;-90
2022/01/08 02:01:11;;;;;;;65.70;20.82;;;;;;;-7.20;100.00;102113.74;1465972;97;21564;-90
2022/01/08 02:03:37;;;;;;;67.03;23.40;;;;;;;-7.22;100.00;102117.77;1466062;96;21320;-90
2022/01/08 02:06:03;;;;;;;76.82;25.48;;;;;;;-7.23;100.00;102117.41;1466000;97;26960;-91
2022/01/08 02:08:29;;;;;;;81.67;27.55;;;;;;;-7.21;100.00;102121.22;1465970;97;21134;-91
2022/01/08 02:10:55;;;;;;;83.20;26.70;;;;;;;-7.21;100.00;102129.07;1466034;97;21244;-90
2022/01/08 02:13:26;;;;;;;91.10;30.60;;;;;;;-7.23;100.00;102138.84;1483111;96;21136;-90
2022/01/08 02:15:55;;;;;;;77.55;27.32;;;;;;;-7.23;100.00;102139.67;1506703;94;21348;-90
2022/01/08 02:18:26;;;;;;;66.02;21.68;;;;;;;-7.29;100.00;102133.55;1512985;94;21097;-91
2022/01/08 02:20:54;;;;;;;70.83;24.35;;;;;;;-7.35;100.00;102140.52;1513557;94;21186;-90
2022/01/08 02:23:20;;;;;;;58.58;19.75;;;;;;;-7.36;100.00;102140.12;1513528;94;21096;-91
2022/01/08 02:25:46;;;;;;;54.55;21.15;;;;;;;-7.41;100.00;102140.45;1513517;94;21067;-90
2022/01/08 02:28:12;;;;;;;69.12;23.12;;;;;;;-7.47;100.00;102139.56;1513410;94;21173;-91
2022/01/08 02:30:38;;;;;;;62.93;21.95;;;;;;;-7.47;100.00;102140.88;1588190;89;26717;-90
2022/01/08 02:33:04;;;;;;;63.83;22.37;;;;;;;-7.44;100.00;102145.91;1605745;89;26715;-90
2022/01/08 02:35:29;;;;;;;62.05;22.22;;;;;;;-7.43;100.00;102137.58;1605724;89;21363;-90
2022/01/08 02:37:55;;;;;;;68.07;24.92;;;;;;;-7.50;100.00;102138.44;1605615;89;20993;-90
2022/01/08 02:40:23;;;;;;;74.92;23.50;;;;;;;-7.51;100.00;102143.80;1605770;89;21997;-93
2022/01/08 02:43:00;;;;;;;82.62;27.05;;;;;;;-7.53;100.00;102145.19;1605425;89;21434;-91
2022/01/08 02:45:22;;;;;;;93.30;28.67;;;;;;;-7.54;100.00;102144.83;1602488;89;21572;-90
2022/01/08 02:47:48;;;;;;;90.25;28.57;;;;;;;-7.55;100.00;102151.02;1605764;89;21065;-90
2022/01/08 02:50:16;;;;;;;89.75;28.85;;;;;;;-7.58;100.00;102148.13;1606400;88;21651;-91
2022/01/08 02:52:44;;;;;;;79.07;25.52;;;;;;;-7.64;100.00;102144.63;1607626;89;21498;-90
2022/01/08 02:55:14;;;;;;;66.60;24.60;;;;;;;-7.67;100.00;102151.38;1607571;89;21166;-92
2022/01/08 02:57:40;;;;;;;75.28;26.68;;;;;;;-7.64;100.00;102147.72;1607367;88;21100;-91
2022/01/08 03:00:08;;;;;;;71.77;25.50;;;;;;;-7.61;100.00;102148.82;1607347;89;21581;-91
2022/01/08 03:02:40;;;;;;;69.70;23.57;;;;;;;-7.59;100.00;102153.45;1607374;89;21112;-91
2022/01/08 03:05:07;;;;;;;74.62;25.52;;;;;;;-7.59;100.00;102156.08;1602819;89;22090;-91
2022/01/08 03:07:34;;;;;;;67.62;24.30;;;;;;;-7.59;100.00;102162.62;1606968;89;21077;-91
2022/01/08 03:09:59;;;;;;;69.72;22.30;;;;;;;-7.59;100.00;102165.23;1607390;89;21092;-92
2022/01/08 03:12:27;;;;;;;72.90;25.97;;;;;;;-7.61;100.00;102164.05;1607296;89;25770;-91
2022/01/08 03:14:55;;;;;;;83.33;26.37;;;;;;;-7.63;100.00;102169.01;1607414;89;21117;-91
2022/01/08 03:17:21;;;;;;;76.10;23.62;;;;;;;-7.65;100.00;102173.50;1607472;89;21124;-91
2022/01/08 03:19:47;;;;;;;72.32;24.80;;;;;;;-7.71;100.00;102168.67;1671891;84;21043;-91
2022/01/08 03:22:13;;;;;;;76.90;22.93;;;;;;;-7.77;100.00;102167.30;1693966;84;26894;-90
2022/01/08 03:24:41;;;;;;;62.30;24.12;;;;;;;-7.78;100.00;102160.41;1693831;84;21345;-91
2022/01/08 03:27:07;;;;;;;63.38;22.32;;;;;;;-7.74;100.00;102166.27;1693565;84;21500;-91
2022/01/08 03:29:33;;;;;;;69.95;23.55;;;;;;;-7.72;100.00;102167.01;1693939;84;21019;-91
2022/01/08 03:31:59;;;;;;;64.00;22.37;;;;;;;-7.77;100.00;102169.44;1693821;84;20964;-91
2022/01/08 03:34:25;;;;;;;61.75;22.02;;;;;;;-7.74;100.00;102179.34;1693928;84;21039;-91
2022/01/08 03:36:51;;;;;;;70.85;23.92;;;;;;;-7.73;100.00;102184.49;1693939;84;28150;-91
2022/01/08 03:39:18;;;;;;;65.25;23.70;;;;;;;-7.75;100.00;102186.84;1693743;84;20869;-91
2022/01/08 03:41:45;;;;;;;69.07;23.15;;;;;;;-7.79;100.00;102185.73;1693500;84;21170;-92
2022/01/08 03:44:11;;;;;;;75.35;24.65;;;;;;;-7.83;100.00;102189.47;1693401;84;21028;-91
2022/01/08 03:46:38;;;;;;;70.17;25.43;;;;;;;-7.86;100.00;102190.14;1693823;84;20976;-92
2022/01/08 03:51:32;;;;;;;64.95;23.87;;;;;;;-7.92;100.00;102193.16;1675240;84;21060;-91
2022/01/08 03:53:58;;;;;;;61.68;24.12;;;;;;;-7.94;100.00;102191.97;1670149;85;22223;-91
2022/01/08 03:56:26;;;;;;;69.47;23.67;;;;;;;-7.96;100.00;102198.24;1669499;86;21102;-92
2022/01/08 03:58:52;;;;;;;65.95;23.22;;;;;;;-7.97;100.00;102192.62;1641498;87;21105;-92
2022/01/08 04:01:18;;;;;;;72.75;23.75;;;;;;;-8.01;100.00;102190.20;1641505;87;21092;-92
2022/01/08 04:03:43;;;;;;;63.23;22.58;;;;;;;-8.01;100.00;102188.89;1641807;87;20931;-92
2022/01/08 04:06:09;;;;;;;63.58;21.73;;;;;;;-7.98;100.00;102190.48;1641677;87;20918;-91
2022/01/08 04:08:35;;;;;;;60.43;21.87;;;;;;;-7.96;100.00;102188.61;1641554;87;27043;-92
2022/01/08 04:11:02;;;;;;;61.00;20.88;;;;;;;-7.98;100.00;102190.95;1641342;87;26671;-91
2022/01/08 04:13:31;;;;;;;61.00;20.60;;;;;;;-7.98;100.00;102197.02;1641210;87;21021;-91
2022/01/08 04:16:01;;;;;;;58.25;22.35;;;;;;;-7.98;100.00;102192.26;1641135;86;21102;-91
2022/01/08 04:18:24;;;;;;;59.23;21.12;;;;;;;-7.98;100.00;102188.34;1638065;87;21109;-91
2022/01/08 04:21:10;;;;;;;61.90;21.37;;;;;;;-7.96;100.00;102199.55;1641639;87;26787;-92
2022/01/08 04:23:21;;;;;;;58.08;22.10;;;;;;;-7.97;100.00;102197.41;1649936;86;21017;-91
2022/01/08 04:25:46;;;;;;;105.67;37.00;;;;;;;-7.98;100.00;102197.02;1669799;84;21517;-90
2022/01/08 04:28:12;;;;;;;110.72;39.73;;;;;;;-7.97;100.00;102205.25;1670011;85;20998;-91
2022/01/08 04:30:39;;;;;;;114.75;39.78;;;;;;;-7.97;100.00;102201.33;1670035;85;20987;-90
2022/01/08 04:33:05;;;;;;;109.30;38.48;;;;;;;-7.98;100.00;102198.32;1670022;85;21072;-90
2022/01/08 04:35:30;;;;;;;79.60;24.50;;;;;;;-7.96;100.00;102199.55;1669986;85;26953;-91
2022/01/08 04:37:56;;;;;;;67.60;22.27;;;;;;;-7.98;100.00;102198.32;1670105;85;28496;-90
2022/01/08 04:40:22;;;;;;;59.38;22.20;;;;;;;-7.98;100.00;102202.72;1670164;85;20903;-90
2022/01/08 04:42:48;;;;;;;56.13;18.05;;;;;;;-7.98;100.00;102203.55;1670088;85;21093;-90
2022/01/08 04:45:14;;;;;;;44.00;16.65;;;;;;;-7.99;100.00;102201.89;1670218;85;26756;-92
2022/01/08 04:47:41;;;;;;;40.52;14.93;;;;;;;-8.00;100.00;102201.50;1670237;85;26569;-92
2022/01/08 04:50:12;;;;;;;43.38;15.50;;;;;;;-7.97;100.00;102205.70;1670755;84;21069;-91
2022/01/08 04:52:36;;;;;;;37.53;14.00;;;;;;;-7.99;100.00;102203.20;1683519;84;21032;-91
2022/01/08 04:55:02;;;;;;;40.67;15.03;;;;;;;-8.01;100.00;102207.20;1684243;85;21696;-90
2022/01/08 04:57:28;;;;;;;37.30;14.35;;;;;;;-7.98;100.00;102212.71;1683836;84;20964;-91
2022/01/08 04:59:53;;;;;;;37.93;14.00;;;;;;;-7.99;100.00;102207.12;1684172;85;26531;-90
2022/01/08 05:02:19;;;;;;;36.73;14.20;;;;;;;-7.98;100.00;102216.63;1686118;85;29939;-90
2022/01/08 05:04:45;;;;;;;33.23;12.75;;;;;;;-7.96;100.00;102226.54;1683897;84;21024;-91
2022/01/08 05:07:11;;;;;;;34.13;12.60;;;;;;;-7.97;100.00;102226.18;1683899;84;22591;-90
2022/01/08 05:09:37;;;;;;;34.18;12.78;;;;;;;-7.97;100.00;102225.31;1683827;84;26921;-91
2022/01/08 05:12:04;;;;;;;32.28;12.80;;;;;;;-7.98;100.00;102226.27;1684169;85;26491;-91
2022/01/08 05:14:29;;;;;;;32.50;13.85;;;;;;;-7.99;100.00;102230.66;1684335;85;21414;-91
2022/01/08 05:17:01;;;;;;;50.80;16.32;;;;;;;-8.03;100.00;102231.33;1684110;85;26992;-90
2022/01/08 05:19:40;;;;;;;70.67;25.08;;;;;;;-8.04;100.00;102232.72;1683559;85;21036;-91
2022/01/08 05:21:58;;;;;;;52.10;19.90;;;;;;;-8.05;100.00;102236.28;1680817;85;21553;-91
2022/01/08 05:24:22;;;;;;;89.28;30.52;;;;;;;-8.06;100.00;102233.28;1683566;84;21056;-90
2022/01/08 05:26:48;;;;;;;116.47;40.55;;;;;;;-8.12;100.00;102237.13;1684232;85;29095;-90
2022/01/08 05:29:14;;;;;;;93.82;34.38;;;;;;;-8.14;100.00;102231.64;1684380;84;20861;-89
2022/01/08 05:31:40;;;;;;;77.55;26.12;;;;;;;-8.13;100.00;102232.00;1684268;85;21143;-90
2022/01/08 05:34:07;;;;;;;62.50;22.73;;;;;;;-8.11;100.00;102240.60;1664043;85;27610;-90
2022/01/08 05:36:33;;;;;;;60.25;22.07;;;;;;;-8.08;100.00;102248.25;1684085;85;21007;-90
2022/01/08 05:38:59;;;;;;;63.48;22.50;;;;;;;-8.05;100.00;102240.20;1684065;84;28984;-91
2022/01/08 05:41:25;;;;;;;55.78;20.05;;;;;;;-8.01;100.00;102242.52;1684370;85;20873;-90
2022/01/08 05:43:50;;;;;;;56.77;21.37;;;;;;;-7.98;100.00;102246.71;1684107;84;21087;-91
2022/01/08 05:46:16;;;;;;;56.83;20.55;;;;;;;-7.94;100.00;102243.42;1684074;85;26941;-91
2022/01/08 05:48:42;;;;;;;59.35;22.48;;;;;;;-7.90;100.00;102253.61;1684146;85;27090;-90
2022/01/08 05:51:08;;;;;;;56.23;19.73;;;;;;;-7.84;100.00;102258.92;1678882;84;20907;-91
2022/01/08 05:53:34;;;;;;;69.53;24.00;;;;;;;-7.78;100.00;102258.05;1670197;85;21002;-91
2022/01/08 05:56:00;;;;;;;67.30;22.17;;;;;;;-7.71;100.00;102257.17;1670009;86;21968;-91
2022/01/08 05:58:25;;;;;;;51.77;18.25;;;;;;;-7.63;100.00;102256.21;1642851;86;27014;-91
2022/01/08 06:00:51;;;;;;;54.58;18.05;;;;;;;-7.39;100.00;102260.77;1669986;85;26786;-91
2022/01/08 06:03:19;;;;;;;58.02;18.37;;;;;;;-6.97;100.00;102258.83;1665516;86;21022;-91
2022/01/08 06:05:45;;;;;;;67.72;22.45;;;;;;;-6.10;100.00;102256.67;1669554;86;21050;-92
2022/01/08 06:08:14;;;;;;;72.50;23.20;;;;;;;-5.68;100.00;102249.23;1670149;85;21077;-92
2022/01/08 06:10:40;;;;;;;69.92;22.40;;;;;;;-5.35;100.00;102263.47;1669727;85;21126;-91
2022/01/08 06:13:06;;;;;;;69.90;21.60;;;;;;;-4.35;100.00;102266.70;1669632;86;21637;-92
2022/01/08 06:15:32;;;;;;;67.35;19.48;;;;;;;-3.29;100.00;102271.80;1666585;85;20922;-92
2022/01/08 06:17:58;;;;;;;57.67;18.30;;;;;;;-2.26;100.00;102261.70;1663302;84;21011;-93
2022/01/08 06:20:27;;;;;;;46.50;15.88;;;;;;;-2.03;100.00;102264.47;1646531;86;21621;-92
2022/01/08 06:22:53;;;;;;;45.00;14.40;;;;;;;-0.74;100.00;102262.00;1664357;85;20955;-93
2022/01/08 06:25:22;;;;;;;39.08;14.45;;;;;;;0.72;100.00;102265.95;1662768;85;20934;-93
2022/01/08 06:27:49;;;;;;;27.87;11.73;;;;;;;2.17;100.00;102268.69;1648047;87;22912;-93
2022/01/08 06:30:15;;;;;;;35.05;12.47;;;;;;;3.18;100.00;102268.91;1647843;87;21555;-93
2022/01/08 06:32:41;;;;;;;25.50;11.40;;;;;;;3.91;100.00;102271.80;1635616;86;21104;-90
2022/01/08 06:35:08;;;;;;;28.73;11.50;;;;;;;5.05;100.00;102270.16;1607078;87;20942;-91
2022/01/08 06:37:33;;;;;;;24.87;10.78;;;;;;;5.70;100.00;102272.12;1633538;86;22541;-91
2022/01/08 06:39:59;;;;;;;22.70;10.28;;;;;;;6.53;100.00;102271.36;1632946;86;20907;-92
2022/01/08 06:42:25;;;;;;;24.92;10.53;;;;;;;7.21;100.00;102266.35;1689747;84;20910;-91
2022/01/08 06:44:51;;;;;;;25.23;11.10;;;;;;;8.03;100.00;102270.08;1688923;83;21086;-91
2022/01/08 06:47:17;;;;;;;29.37;11.85;;;;;;;9.00;100.00;102269.29;1688759;85;20934;-90
2022/01/08 06:49:43;;;;;;;26.90;12.85;;;;;;;9.27;92.66;102268.77;1688809;84;20875;-90
2022/01/08 06:52:09;;;;;;;29.05;12.58;;;;;;;9.51;88.30;102270.77;1684992;84;20900;-90
2022/01/08 06:54:35;;;;;;;23.20;11.25;;;;;;;9.99;82.71;102271.72;1680667;85;20984;-90
2022/01/08 06:57:00;;;;;;;25.95;12.00;;;;;;;10.35;71.80;102274.88;1680171;83;21062;-89
2022/01/08 06:59:26;;;;;;;22.60;11.25;;;;;;;10.37;68.54;102271.46;1680250;85;20853;-90
2022/01/08 07:01:52;;;;;;;23.65;10.78;;;;;;;10.96;67.17;102276.92;1680491;85;21072;-90
2022/01/08 07:04:18;;;;;;;23.73;11.08;;;;;;;11.93;68.71;102270.95;1662996;85;20897;-90
2022/01/08 07:06:44;;;;;;;21.02;10.55;;;;;;;13.34;67.88;102275.34;1680672;84;22130;-90
2022/01/08 07:09:10;;;;;;;22.15;10.13;;;;;;;14.30;60.94;102278.38;1680723;85;21149;-89
2022/01/08 07:11:36;;;;;;;18.92;9.70;;;;;;;14.78;55.85;102277.06;1662973;85;21720;-89
2022/01/08 07:14:02;;;;;;;20.55;9.68;;;;;;;15.21;54.06;102272.84;1680619;85;20984;-90
2022/01/08 07:16:28;;;;;;;19.20;9.58;;;;;;;15.94;50.95;102274.89;1663220;85;21717;-89
2022/01/08 07:18:54;;;;;;;19.75;9.45;;;;;;;15.80;47.44;102275.84;1680588;85;21116;-90
2022/01/08 07:21:20;;;;;;;17.50;9.45;;;;;;;16.51;47.07;102273.04;1680769;85;21142;-90
2022/01/08 07:23:48;;;;;;;16.10;9.45;;;;;;;17.48;44.60;102274.30;1680634;85;21017;-91
2022/01/08 07:26:14;;;;;;;18.98;10.10;;;;;;;17.86;44.40;102272.31;1680374;85;21492;-92
2022/01/08 07:28:41;;;;;;;27.93;10.15;;;;;;;18.74;43.23;102276.86;1680373;85;21040;-92
2022/01/08 07:31:07;;;;;;;18.90;10.00;;;;;;;19.48;40.74;102281.64;1677732;85;21655;-89
2022/01/08 07:33:33;;;;;;;21.48;11.50;;;;;;;20.00;39.03;102281.44;1663134;85;21028;-87
2022/01/08 07:35:59;;;;;;;22.77;11.10;;;;;;;20.42;38.10;102280.91;1680512;85;20909;-88
2022/01/08 07:38:25;;;;;;;20.60;11.33;;;;;;;20.58;37.17;102286.55;1680484;85;20901;-89
2022/01/08 07:40:52;;;;;;;22.10;11.33;;;;;;;20.98;36.84;102280.47;1680745;85;21013;-90
2022/01/08 07:43:20;;;;;;;25.23;11.00;;;;;;;21.47;35.26;102282.18;1662670;85;20949;-89
2022/01/08 07:45:46;;;;;;;25.45;11.68;;;;;;;21.83;33.85;102280.92;1680397;85;21813;-88
2022/01/08 07:48:12;;;;;;;21.27;10.90;;;;;;;22.07;33.72;102290.47;1680478;85;21048;-89
2022/01/08 07:50:38;;;;;;;21.07;10.98;;;;;;;22.64;33.27;102289.33;1680370;85;20968;-89
2022/01/08 07:53:07;;;;;;;19.02;10.10;;;;;;;23.14;32.37;102287.39;1680660;84;21806;-89
2022/01/08 07:55:33;;;;;;;20.95;10.55;;;;;;;23.57;32.45;102281.05;1655590;85;21068;-89
2022/01/08 07:57:59;;;;;;;15.23;9.03;;;;;;;24.03;30.99;102279.25;1680491;85;21857;-91
2022/01/08 08:00:25;;;;;;;18.42;9.28;;;;;;;24.16;30.07;102264.64;1680886;85;20877;-89
2022/01/08 08:02:51;;;;;;;17.55;10.08;;;;;;;24.45;29.85;102278.60;1681087;85;21144;-91
2022/01/08 08:05:17;;;;;;;16.70;10.23;;;;;;;24.50;29.60;102276.27;1680760;85;20928;-91
2022/01/08 08:07:43;;;;;;;18.55;10.88;;;;;;;24.20;28.93;102271.71;1681052;85;21107;-88
2022/01/08 08:10:27;;;;;;;;;;;;;;;;;;;;;
2022/01/08 08:12:44;;;;;;;17.60;10.20;;;;;;;24.47;29.11;102275.78;1484639;96;21695;-90
2022/01/08 08:17:39;;;;;;;13.05;7.67;;;;;;;25.28;27.99;102276.73;1488938;96;21632;-90
2022/01/08 08:20:07;;;;;;;16.02;8.75;;;;;;;24.98;26.81;102275.61;1489862;96;21199;-90
2022/01/08 08:22:33;;;;;;;18.17;9.68;;;;;;;25.37;27.11;102272.06;1489425;96;21192;-88
2022/01/08 08:24:59;;;;;;;15.05;9.28;;;;;;;25.53;26.50;102261.38;1489457;96;21117;-89
2022/01/08 08:27:26;;;;;;;15.50;9.28;;;;;;;24.32;25.96;102265.65;1489271;96;21165;-88
2022/01/08 08:29:52;;;;;;;15.05;8.85;;;;;;;23.94;26.30;102266.81;1490294;96;21192;-89
2022/01/08 08:32:19;;;;;;;17.92;9.78;;;;;;;23.53;25.78;102261.31;1489373;96;21193;-90
2022/01/08 08:34:45;;;;;;;14.40;8.00;;;;;;;21.19;25.80;102259.70;1489102;96;22029;-90
2022/01/08 08:37:12;;;;;;;11.12;5.03;;;;;;;17.76;27.40;102264.05;1489525;96;21643;-90
2022/01/08 08:39:38;;;;;;;10.80;4.17;;;;;;;14.97;28.73;102254.55;1491247;96;21789;-90
2022/01/08 08:44:35;;;;;;;10.50;3.90;;;;;;;10.68;32.50;102255.80;1387795;102;21210;-92
2022/01/08 08:47:03;;;;;;;9.00;3.60;;;;;;;9.35;34.47;102257.76;1388634;102;21183;-91
2022/01/08 08:49:29;;;;;;;9.33;3.25;;;;;;;8.33;35.42;102254.97;1387202;102;21615;-91
2022/01/08 08:51:55;;;;;;;6.85;2.95;;;;;;;7.62;36.72;102252.15;1388191;102;21175;-92
2022/01/08 08:54:22;;;;;;;8.50;3.17;;;;;;;6.73;38.43;102250.61;1387987;101;21922;-91
2022/01/08 08:56:49;;;;;;;8.08;2.98;;;;;;;6.16;39.89;102254.19;1387215;102;21156;-91
2022/01/08 08:59:15;;;;;;;5.72;2.37;;;;;;;5.82;40.81;102251.08;1388012;102;21642;-91
2022/01/08 09:01:41;;;;;;;6.90;2.60;;;;;;;5.19;42.12;102249.83;1387177;102;21228;-91
2022/01/08 09:04:07;;;;;;;7.80;2.55;;;;;;;4.55;43.68;102241.70;1372435;103;21249;-92
2022/01/08 09:06:33;;;;;;;5.55;2.08;;;;;;;4.10;44.30;102234.03;1388025;101;21117;-91
2022/01/08 09:09:00;;;;;;;6.42;2.20;;;;;;;3.43;46.57;102227.02;1415587;94;21128;-90
2022/01/08 09:11:27;;;;;;;9.88;2.37;;;;;;;2.99;46.89;102221.31;1515973;94;21332;-90
2022/01/08 09:13:54;;;;;;;5.15;2.02;;;;;;;2.71;48.36;102216.37;1511095;94;21625;-90
2022/01/08 09:16:29;;;;;;;7.40;1.80;;;;;;;2.39;49.00;102211.38;1529156;93;21159;-91
2022/01/08 09:21:51;;;;;;;6.08;1.57;;;;;;;2.00;50.96;102199.18;1528106;93;21122;-92
2022/01/08 09:24:19;;;;;;;4.05;1.37;;;;;;;1.65;53.26;102198.92;1529208;93;21078;-92
2022/01/08 09:26:48;;;;;;;3.37;1.17;;;;;;;1.61;53.85;102204.23;1529023;93;21543;-92
2022/01/08 09:29:16;;;;;;;3.20;1.30;;;;;;;1.53;53.98;102204.55;1528558;93;21831;-92
2022/01/08 09:31:43;;;;;;;8.58;1.12;;;;;;;1.45;55.61;102203.19;1525488;93;21133;-92
2022/01/08 09:34:09;;;;;;;2.87;1.02;;;;;;;1.36;57.14;102199.66;1528245;93;21156;-93
2022/01/08 09:36:38;;;;;;;2.65;1.15;;;;;;;1.18;56.20;102198.92;1530667;93;21895;-92
2022/01/08 09:39:07;;;;;;;6.42;1.30;;;;;;;1.06;57.01;102192.19;1529291;93;22230;-90
2022/01/08 09:41:36;;;;;;;2.58;1.00;;;;;;;0.88;56.63;102201.07;1547809;92;21019;-91
2022/01/08 09:44:01;;;;;;;3.00;1.22;;;;;;;0.85;59.55;102192.56;1537836;92;21423;-92
2022/01/08 09:46:27;;;;;;;6.58;1.72;;;;;;;0.86;59.20;102179.16;1538579;93;21103;-92
2022/01/08 09:48:53;;;;;;;2.60;0.90;;;;;;;0.82;63.60;102178.28;1652804;85;21094;-91
2022/01/08 09:51:20;;;;;;;3.22;1.25;;;;;;;0.83;62.44;102166.20;1669688;85;21014;-91
2022/01/08 09:53:46;;;;;;;7.78;1.55;;;;;;;0.82;62.75;102163.19;1661674;85;21039;-91
2022/01/08 09:56:13;;;;;;;2.17;1.00;;;;;;;0.84;64.36;102163.05;1668208;84;21112;-91
2022/01/08 09:58:39;;;;;;;5.67;1.00;;;;;;;0.76;63.53;102147.89;1689852;84;21037;-91
2022/01/08 10:01:28;;;;;;;3.90;1.05;;;;;;;0.65;63.02;102143.70;1668392;86;21087;-92
2022/01/08 10:03:56;;;;;;;4.17;0.93;;;;;;;0.57;64.06;102146.30;1606679;89;21110;-90
2022/01/08 10:06:30;;;;;;;4.60;1.20;;;;;;;0.48;63.24;102130.49;1606960;89;21094;-91
2022/01/08 10:08:57;;;;;;;2.98;1.10;;;;;;;0.44;63.37;102139.22;1607123;89;21611;-91
2022/01/08 10:11:25;;;;;;;4.00;1.55;;;;;;;0.41;63.86;102133.77;1601967;87;22356;-91
2022/01/08 10:14:02;;;;;;;3.58;1.10;;;;;;;0.36;65.44;102139.19;1601465;89;21890;-91
2022/01/08 10:19:21;;;;;;;4.65;1.22;;;;;;;0.29;65.41;102130.17;1523291;92;21142;-92
2022/01/08 10:21:48;;;;;;;3.55;1.17;;;;;;;0.23;65.89;102130.28;1524524;94;21179;-92
2022/01/08 10:24:22;;;;;;;3.50;1.17;;;;;;;0.19;66.38;102124.97;1524687;94;21636;-91
2022/01/08 10:26:49;;;;;;;4.87;1.50;;;;;;;0.19;65.89;102133.75;1502747;95;21934;-91
2022/01/08 10:29:21;;;;;;;3.58;1.40;;;;;;;0.16;66.08;102124.77;1506910;95;21115;-92
2022/01/08 10:31:53;;;;;;;4.70;1.65;;;;;;;0.14;68.24;102117.95;1507255;95;21057;-92
2022/01/08 10:34:23;;;;;;;4.80;1.22;;;;;;;0.12;67.60;102120.78;1507409;93;21156;-91
2022/01/08 10:37:02;;;;;;;2.72;1.10;;;;;;;0.15;67.74;102122.30;1507406;95;21684;-91
2022/01/08 10:39:38;;;;;;;6.95;1.30;;;;;;;0.12;68.57;102124.75;1507485;95;21138;-93
2022/01/08 10:42:17;;;;;;;5.58;1.27;;;;;;;0.08;68.49;102118.08;1507181;95;21647;-93
2022/01/08 10:44:47;;;;;;;4.58;1.35;;;;;;;0.07;69.27;102115.59;1507610;95;21134;-94
2022/01/08 10:47:20;;;;;;;5.50;1.35;;;;;;;0.03;69.97;102103.15;1525690;90;21040;-93
2022/01/08 10:50:05;;;;;;;2.60;1.32;;;;;;;0.03;70.69;102102.29;1557690;90;21117;-92
2022/01/08 10:52:43;;;;;;;5.30;1.32;;;;;;;0.03;71.58;102100.50;1559369;90;20984;-92
2022/01/08 10:55:11;;;;;;;2.42;1.25;;;;;;;0.03;71.20;102103.15;1562413;90;21134;-93
2022/01/08 11:00:14;;;;;;;4.95;1.42;;;;;;;-0.02;70.37;102102.27;1470042;96;21147;-92
2022/01/08 11:02:43;;;;;;;7.12;2.05;;;;;;;0.02;70.54;102111.23;1486406;95;21234;-92
2022/01/08 11:05:11;;;;;;;4.15;1.60;;;;;;;0.03;71.23;102109.77;1485943;95;21156;-92
2022/01/08 11:07:41;;;;;;;6.80;2.95;;;;;;;0.06;73.57;102113.44;1486094;95;21200;-92
2022/01/08 11:10:18;;;;;;;4.25;1.90;;;;;;;0.09;75.36;102109.62;1490018;95;21156;-92
2022/01/08 11:12:48;;;;;;;4.80;1.95;;;;;;;0.11;77.06;102105.84;1485967;96;21101;-90
2022/01/08 11:17:51;;;;;;;;;;;;;;;0.14;72.67;102110.84;1525764;92;21845;-92
2022/01/08 11:20:25;;;;;;;7.58;2.83;;;;;;;0.08;72.67;102106.64;1558416;92;20305;-92
2022/01/08 11:22:57;;;;;;;8.38;2.40;;;;;;;0.07;72.49;102111.62;1559092;92;21100;-90
2022/01/08 11:25:30;;;;;;;3.40;1.17;;;;;;;0.07;74.90;102103.67;1549466;92;21077;-92
2022/01/08 11:28:14;;;;;;;4.87;2.22;;;;;;;0.06;74.75;102101.98;1550492;91;21170;-91
2022/01/08 11:30:49;;;;;;;7.90;2.40;;;;;;;0.04;78.05;102094.20;1551349;92;21356;-90
2022/01/08 11:33:23;;;;;;;5.22;2.17;;;;;;;0.07;77.43;102092.56;1552695;92;21073;-89
2022/01/08 11:35:49;;;;;;;5.70;1.62;;;;;;;0.07;75.85;102089.09;1555137;92;21104;-91
2022/01/08 11:38:19;;;;;;;7.67;1.50;;;;;;;0.04;72.43;102088.08;1600006;87;21202;-91
2022/01/08 11:40:49;;;;;;;4.15;1.30;;;;;;;0.02;71.71;102083.41;1622329;86;20983;-88
2022/01/08 11:43:23;;;;;;;4.67;2.02;;;;;;;0.02;71.93;102087.39;1618464;86;21773;-91
2022/01/08 11:46:01;;;;;;;4.40;1.60;;;;;;;0.05;73.70;102081.28;1554306;92;21680;-92
2022/01/08 11:48:37;;;;;;;6.55;1.52;;;;;;;0.08;76.08;102080.97;1483199;95;22247;-92
2022/01/08 11:51:06;;;;;;;7.00;1.80;;;;;;;0.10;74.11;102070.23;1439417;98;21114;-91